createdAt,value
2018-04-18T00:03:16.238Z,65.49
2018-04-18T00:08:17.534Z,65.64
2018-04-18T00:13:18.817Z,65.74
2018-04-18T00:18:20.876Z,65.98
2018-04-18T00:23:22.177Z,66.24
2018-04-18T00:28:23.474Z,66.10
2018-04-18T00:33:25.653Z,66.68
2018-04-18T00:38:27.007Z,66.61
2018-04-18T00:43:28.336Z,66.27
2018-04-18T00:48:29.666Z,66.60
2018-04-18T00:53:31.010Z,66.74
2018-04-18T00:58:32.310Z,66.68
2018-04-18T01:03:33.605Z,67.13
2018-04-18T01:08:34.898Z,66.86
2018-04-18T01:13:36.191Z,67.49
2018-04-18T01:18:37.486Z,67.55
2018-04-18T01:23:38.782Z,67.71
2018-04-18T01:28:40.089Z,67.62
2018-04-18T01:33:41.383Z,67.88
2018-04-18T01:38:42.687Z,67.81
2018-04-18T01:43:44.716Z,67.69
2018-04-18T01:48:46.008Z,67.69
2018-04-18T01:53:47.290Z,67.93
2018-04-18T01:58:48.577Z,68.24
2018-04-18T02:03:49.869Z,68.69
2018-04-18T02:08:51.182Z,68.71
2018-04-18T02:13:52.470Z,69.04
2018-04-18T02:18:53.769Z,68.92
2018-04-18T02:23:55.105Z,68.61
2018-04-18T02:28:57.149Z,68.17
2018-04-18T02:33:58.484Z,68.21
2018-04-18T02:38:59.789Z,68.12
2018-04-18T02:44:01.839Z,67.96
2018-04-18T02:49:03.197Z,68.65
2018-04-18T02:54:04.520Z,68.63
2018-04-18T02:59:05.834Z,68.48
2018-04-18T03:04:07.158Z,68.50
2018-04-18T03:09:08.449Z,68.99
2018-04-18T03:14:09.745Z,69.36
2018-04-18T03:19:11.061Z,69.39
2018-04-18T03:24:12.354Z,69.16
2018-04-18T03:29:13.667Z,69.05
2018-04-18T03:34:14.985Z,68.88
2018-04-18T03:39:17.045Z,69.48
2018-04-18T03:44:18.337Z,69.55
2018-04-18T03:49:19.646Z,69.16
2018-04-18T03:54:20.965Z,69.09
2018-04-18T03:59:22.274Z,69.32
2018-04-18T04:04:23.562Z,69.31
2018-04-18T04:09:24.897Z,69.44
2018-04-18T04:14:26.202Z,69.78
2018-04-18T04:25:13.726Z,70.07
2018-04-18T04:30:15.111Z,70.49
2018-04-18T04:35:16.513Z,70.55
2018-04-18T04:40:18.664Z,70.57
2018-04-18T04:45:20.065Z,70.47
2018-04-18T04:50:21.406Z,69.86
2018-04-18T04:55:23.464Z,69.68
2018-04-18T05:00:24.933Z,69.27
2018-04-18T05:05:26.259Z,69.08
2018-04-18T05:10:27.626Z,69.19
2018-04-18T05:15:29.547Z,68.77
2018-04-18T05:20:31.010Z,68.33
2018-04-18T05:25:32.349Z,68.17
2018-04-18T05:30:33.783Z,67.94
2018-04-18T05:35:35.137Z,67.94
2018-04-18T05:40:36.483Z,67.49
2018-04-18T05:45:37.838Z,66.96
2018-04-18T05:50:39.911Z,66.52
2018-04-18T05:55:41.226Z,65.76
2018-04-18T06:00:42.558Z,65.34
2018-04-18T06:05:43.892Z,65.01
2018-04-18T06:10:45.206Z,65.34
2018-04-18T06:15:47.229Z,65.39
2018-04-18T06:20:48.564Z,64.93
2018-04-18T06:25:49.869Z,64.70
2018-04-18T06:30:51.190Z,64.33
2018-04-18T06:35:52.591Z,64.07
2018-04-18T06:40:53.989Z,64.07
2018-04-18T06:45:55.322Z,63.75
2018-04-18T06:50:56.650Z,63.29
2018-04-18T06:55:58.216Z,62.90
2018-04-18T07:01:00.290Z,62.22
2018-04-18T07:06:01.650Z,61.67
2018-04-18T07:11:02.999Z,60.98
2018-04-18T07:16:04.318Z,60.83
2018-04-18T07:21:05.657Z,60.76
2018-04-18T07:26:06.992Z,60.12
2018-04-18T07:31:08.602Z,59.49
2018-04-18T07:36:10.006Z,59.16
2018-04-18T07:41:11.350Z,58.69
2018-04-18T07:46:12.667Z,57.66
2018-04-18T07:51:14.002Z,56.99
2018-04-18T07:56:15.338Z,56.44
2018-04-18T08:01:17.397Z,54.54
2018-04-18T08:06:18.718Z,53.47
2018-04-18T08:11:20.776Z,52.07
2018-04-18T08:16:22.121Z,50.71
2018-04-18T08:21:24.222Z,50.16
2018-04-18T08:26:26.329Z,49.35
2018-04-18T08:31:28.398Z,48.64
2018-04-18T08:36:29.722Z,48.51
2018-04-18T08:41:31.765Z,46.49
2018-04-18T08:46:33.070Z,47.90
2018-04-18T08:51:34.402Z,47.37
2018-04-18T08:56:35.730Z,46.85
2018-04-18T09:01:37.099Z,46.25
2018-04-18T09:06:39.273Z,47.04
2018-04-18T09:11:41.163Z,46.52
2018-04-18T09:16:42.496Z,45.53
2018-04-18T09:21:44.566Z,44.29
2018-04-18T09:26:45.891Z,45.22
2018-04-18T09:31:47.952Z,44.55
2018-04-18T09:36:49.274Z,43.36
2018-04-18T09:41:50.599Z,43.76
2018-04-18T09:46:51.969Z,41.40
2018-04-18T09:51:54.068Z,42.41
2018-04-18T09:56:55.391Z,42.31
2018-04-18T10:01:56.727Z,40.14
2018-04-18T10:06:58.109Z,40.25
2018-04-18T10:11:59.429Z,41.64
2018-04-18T10:17:01.502Z,38.26
2018-04-18T10:22:02.862Z,40.84
2018-04-18T10:27:04.169Z,39.67
2018-04-18T10:32:05.488Z,39.96
2018-04-18T10:37:06.849Z,40.44
2018-04-18T10:42:08.272Z,39.03
2018-04-18T10:47:09.562Z,39.62
2018-04-18T10:52:10.919Z,39.05
2018-04-18T10:57:12.235Z,40.09
2018-04-18T11:02:13.542Z,40.78
2018-04-18T11:07:15.615Z,40.51
2018-04-18T11:12:16.942Z,39.14
2018-04-18T11:17:18.991Z,37.67
2018-04-18T11:22:20.314Z,36.44
2018-04-18T11:27:21.698Z,37.11
2018-04-18T11:32:23.018Z,36.32
2018-04-18T11:37:25.162Z,36.07
2018-04-18T11:42:26.493Z,36.76
2018-04-18T11:47:27.811Z,35.25
2018-04-18T11:52:29.906Z,36.69
2018-04-18T11:57:31.983Z,35.48
2018-04-18T12:02:33.313Z,36.18
2018-04-18T12:07:35.390Z,34.84
2018-04-18T12:12:36.693Z,34.16
2018-04-18T12:17:38.011Z,34.29
2018-04-18T12:22:43.118Z,33.38
2018-04-18T12:27:44.434Z,33.86
2018-04-18T12:32:45.737Z,36.43
2018-04-18T12:37:47.066Z,35.98
2018-04-18T12:42:48.397Z,33.00
2018-04-18T12:47:49.717Z,32.53
2018-04-18T12:52:51.796Z,33.33
2018-04-18T12:57:53.103Z,32.21
2018-04-18T13:02:54.396Z,34.47
2018-04-18T13:07:56.458Z,35.73
2018-04-18T13:12:57.774Z,35.77
2018-04-18T13:17:59.116Z,33.52
2018-04-18T13:23:00.488Z,32.84
2018-04-18T13:28:01.862Z,31.84
2018-04-18T13:33:03.949Z,32.00
2018-04-18T13:38:05.314Z,31.87
2018-04-18T13:43:06.646Z,31.78
2018-04-18T13:48:07.943Z,32.21
2018-04-18T13:53:10.022Z,31.61
2018-04-18T13:58:11.349Z,31.96
2018-04-18T14:03:13.396Z,32.60
2018-04-18T14:08:14.697Z,33.79
2018-04-18T14:13:16.025Z,31.50
2018-04-18T14:18:18.090Z,30.93
2018-04-18T14:23:19.386Z,32.39
2018-04-18T14:28:20.718Z,33.15
2018-04-18T14:33:22.769Z,30.34
2018-04-18T14:38:24.086Z,31.26
2018-04-18T14:43:25.418Z,30.89
2018-04-18T14:48:26.715Z,30.37
2018-04-18T14:53:28.062Z,30.06
2018-04-18T14:58:30.127Z,30.17
2018-04-18T15:03:31.425Z,31.49
2018-04-18T15:08:32.741Z,30.12
2018-04-18T15:13:34.100Z,30.49
2018-04-18T15:18:35.402Z,29.42
2018-04-18T15:23:36.854Z,29.75
2018-04-18T15:28:38.213Z,29.27
2018-04-18T15:33:39.558Z,30.14
2018-04-18T15:38:40.890Z,30.31
2018-04-18T15:43:42.936Z,30.82
2018-04-18T15:48:44.310Z,30.39
2018-04-18T15:53:45.694Z,30.34
2018-04-18T15:58:47.017Z,31.07
2018-04-18T16:03:48.370Z,30.48
2018-04-18T16:08:50.418Z,31.71
2018-04-18T16:13:51.721Z,33.67
2018-04-18T16:18:53.047Z,33.44
2018-04-18T16:23:54.350Z,33.38
2018-04-18T16:28:56.722Z,32.98
2018-04-18T16:33:58.066Z,36.01
2018-04-18T16:38:59.425Z,36.20
2018-04-18T16:44:00.764Z,36.45
2018-04-18T16:49:02.098Z,36.21
2018-04-18T16:54:03.427Z,36.28
2018-04-18T16:59:04.749Z,36.32
2018-04-18T17:04:06.110Z,37.27
2018-04-18T17:09:07.461Z,37.64
2018-04-18T17:14:08.792Z,38.78
2018-04-18T17:19:10.109Z,39.17
2018-04-18T17:24:11.427Z,38.80
2018-04-18T17:29:12.741Z,38.71
2018-04-18T17:34:14.790Z,38.92
2018-04-18T17:39:16.102Z,39.01
2018-04-18T17:44:17.429Z,38.54
2018-04-18T17:49:19.481Z,38.87
2018-04-18T17:54:21.361Z,39.31
2018-04-18T17:59:22.663Z,39.60
2018-04-18T18:04:24.002Z,40.06
2018-04-18T18:09:26.069Z,40.63
2018-04-18T18:14:27.421Z,40.85
2018-04-18T18:19:28.746Z,40.91
2018-04-18T18:24:30.086Z,41.73
2018-04-18T18:29:32.168Z,42.24
2018-04-18T18:34:33.513Z,42.91
2018-04-18T18:39:34.809Z,43.54
2018-04-18T18:44:36.117Z,44.04
2018-04-18T18:49:37.427Z,44.96
2018-04-18T18:54:38.743Z,46.04
2018-04-18T18:59:40.046Z,46.32
2018-04-18T19:04:41.350Z,45.62
2018-04-18T19:09:42.651Z,45.94
2018-04-18T19:14:43.963Z,45.45
2018-04-18T19:19:45.267Z,46.12
2018-04-18T19:24:46.590Z,46.04
2018-04-18T19:29:47.905Z,45.91
2018-04-18T19:34:49.210Z,45.90
2018-04-18T19:39:50.510Z,45.14
2018-04-18T19:44:51.810Z,44.89
2018-04-18T19:49:53.106Z,44.90
2018-04-18T19:54:54.494Z,45.28
2018-04-18T19:59:55.785Z,45.18
2018-04-18T20:04:57.838Z,45.87
2018-04-18T20:09:59.142Z,46.29
2018-04-18T20:15:00.442Z,47.41
2018-04-18T20:20:01.755Z,47.89
2018-04-18T20:25:03.814Z,47.79
2018-04-18T20:30:05.126Z,47.86
2018-04-18T20:35:06.432Z,47.84
2018-04-18T20:40:07.729Z,47.76
2018-04-18T20:45:09.029Z,47.38
2018-04-18T20:50:11.302Z,47.28
2018-04-18T20:55:12.639Z,46.85
2018-04-18T21:00:13.962Z,46.98
2018-04-18T21:05:15.335Z,47.03
2018-04-18T21:10:17.345Z,47.31
2018-04-18T21:15:18.647Z,47.33
2018-04-18T21:20:19.937Z,47.80
2018-04-18T21:25:21.278Z,48.34
2018-04-18T21:30:23.334Z,48.56
2018-04-18T21:35:24.647Z,48.38
2018-04-18T21:40:25.938Z,48.21
2018-04-18T21:45:27.257Z,48.82
2018-04-18T21:50:28.546Z,48.87
2018-04-18T21:55:30.608Z,49.35
2018-04-18T22:00:31.968Z,49.68
2018-04-18T22:05:33.265Z,50.74
2018-04-18T22:10:34.556Z,51.68
2018-04-18T22:15:35.860Z,52.44
2018-04-18T22:20:37.154Z,52.55
2018-04-18T22:25:38.465Z,52.86
2018-04-18T22:30:39.777Z,52.77
2018-04-18T22:35:41.077Z,53.08
2018-04-18T22:40:42.374Z,53.48
2018-04-18T22:45:43.670Z,55.12
2018-04-18T22:50:44.973Z,56.16
2018-04-18T22:55:46.266Z,56.46
2018-04-18T23:00:47.566Z,57.41
2018-04-18T23:05:48.862Z,58.40
2018-04-18T23:10:50.187Z,58.77
2018-04-18T23:15:52.227Z,59.63
2018-04-18T23:20:53.528Z,60.94
2018-04-18T23:25:54.846Z,62.42
2018-04-18T23:30:56.142Z,63.53
2018-04-18T23:35:57.430Z,63.54
2018-04-18T23:40:58.754Z,63.67
2018-04-18T23:46:00.050Z,63.72
2018-04-18T23:51:01.377Z,63.19
2018-04-18T23:56:02.685Z,63.89
